createdAt,value
2019-04-04T00:01:22.652Z,69.16
2019-04-04T00:03:53.070Z,69.23
2019-04-04T00:06:26.689Z,69.74
2019-04-04T00:08:54.768Z,69.35
2019-04-04T00:11:24.161Z,69.49
2019-04-04T00:13:54.771Z,69.75
2019-04-04T00:16:24.146Z,68.93
2019-04-04T00:18:54.467Z,69.84
2019-04-04T00:21:24.811Z,69.84
2019-04-04T00:23:53.340Z,70.21
2019-04-04T00:26:22.689Z,69.58
2019-04-04T00:28:52.091Z,69.08
2019-04-04T00:31:20.960Z,69.37
2019-04-04T00:33:51.340Z,69.06
2019-04-04T00:36:20.660Z,69.73
2019-04-04T00:38:51.325Z,69.66
2019-04-04T00:41:20.637Z,69.16
2019-04-04T00:43:51.791Z,68.99
2019-04-04T00:46:24.082Z,69.77
2019-04-04T00:48:54.109Z,69.61
2019-04-04T00:51:26.534Z,69.71
2019-04-04T00:53:54.993Z,69.75
2019-04-04T00:56:25.309Z,70.06
2019-04-04T00:58:55.777Z,69.66
2019-04-04T01:01:27.190Z,70.03
2019-04-04T01:04:00.258Z,70.18
2019-04-04T01:06:30.123Z,70.19
2019-04-04T01:09:00.524Z,69.90
2019-04-04T01:11:32.430Z,70.06
2019-04-04T01:14:02.763Z,70.22
2019-04-04T01:16:34.087Z,70.46
2019-04-04T01:19:02.947Z,70.67
2019-04-04T01:21:33.011Z,70.96
2019-04-04T01:24:01.502Z,70.93
2019-04-04T01:26:34.856Z,70.77
2019-04-04T01:29:05.869Z,70.66
2019-04-04T01:31:36.365Z,70.52
2019-04-04T01:34:05.745Z,71.04
2019-04-04T01:36:35.129Z,71.17
2019-04-04T01:39:06.766Z,70.86
2019-04-04T01:41:39.451Z,71.15
2019-04-04T01:44:11.824Z,71.24
2019-04-04T01:46:42.202Z,71.37
2019-04-04T01:49:14.430Z,71.23
2019-04-04T01:51:45.582Z,71.29
2019-04-04T01:54:16.999Z,71.63
2019-04-04T01:56:47.399Z,71.40
2019-04-04T01:59:19.306Z,71.46
2019-04-04T02:01:48.691Z,71.35
2019-04-04T02:04:19.060Z,71.53
2019-04-04T02:06:49.465Z,71.25
2019-04-04T02:09:19.864Z,71.83
2019-04-04T02:11:50.246Z,70.61
2019-04-04T02:14:19.720Z,70.91
2019-04-04T02:16:51.610Z,70.66
2019-04-04T02:19:22.933Z,70.44
2019-04-04T02:21:53.362Z,69.54
2019-04-04T02:24:24.218Z,70.24
2019-04-04T02:26:53.546Z,69.67
2019-04-04T02:29:23.948Z,69.15
2019-04-04T02:31:57.681Z,69.51
2019-04-04T02:34:28.099Z,69.91
2019-04-04T02:36:58.627Z,70.66
2019-04-04T02:39:29.003Z,70.07
2019-04-04T02:41:59.348Z,70.42
2019-04-04T02:44:32.269Z,70.35
2019-04-04T02:47:01.804Z,71.58
2019-04-04T02:49:32.215Z,71.00
2019-04-04T02:52:01.571Z,71.19
2019-04-04T02:54:31.970Z,71.21
2019-04-04T02:57:02.859Z,72.03
2019-04-04T02:59:33.421Z,71.79
2019-04-04T03:02:05.769Z,71.74
2019-04-04T03:04:34.162Z,72.30
2019-04-04T03:07:03.709Z,72.61
2019-04-04T03:09:33.193Z,72.45
2019-04-04T03:12:03.575Z,71.89
2019-04-04T03:14:37.346Z,71.85
2019-04-04T03:17:06.777Z,72.59
2019-04-04T03:19:43.057Z,72.74
2019-04-04T03:22:10.663Z,72.94
2019-04-04T03:24:44.743Z,72.79
2019-04-04T03:27:13.081Z,73.60
2019-04-04T03:29:42.674Z,74.20
2019-04-04T03:32:14.400Z,73.87
2019-04-04T03:34:49.765Z,73.66
2019-04-04T03:37:16.560Z,74.01
2019-04-04T03:39:47.005Z,73.09
2019-04-04T03:42:17.419Z,73.37
2019-04-04T03:44:52.887Z,73.89
2019-04-04T03:47:19.950Z,74.29
2019-04-04T03:49:50.288Z,73.63
2019-04-04T03:52:19.662Z,74.57
2019-04-04T03:54:49.070Z,74.29
2019-04-04T03:57:19.654Z,74.75
2019-04-04T03:59:50.082Z,74.60
2019-04-04T04:02:19.784Z,75.02
2019-04-04T04:04:49.243Z,75.52
2019-04-04T04:07:18.766Z,75.46
2019-04-04T04:09:48.164Z,75.62
2019-04-04T04:12:18.520Z,75.84
2019-04-04T04:14:48.028Z,75.95
2019-04-04T04:17:18.419Z,75.97
2019-04-04T04:19:47.795Z,76.05
2019-04-04T04:22:19.275Z,76.41
2019-04-04T04:24:48.884Z,76.74
2019-04-04T04:27:21.266Z,76.87
2019-04-04T04:29:51.712Z,77.11
2019-04-04T04:32:22.792Z,77.36
2019-04-04T04:34:52.309Z,76.77
2019-04-04T04:37:21.733Z,76.65
2019-04-04T04:39:52.088Z,76.31
2019-04-04T04:42:26.322Z,76.42
2019-04-04T04:44:53.795Z,75.56
2019-04-04T04:47:25.653Z,75.88
2019-04-04T04:49:55.601Z,75.80
2019-04-04T04:52:26.123Z,75.54
2019-04-04T04:54:55.688Z,74.94
2019-04-04T04:57:29.736Z,75.04
2019-04-04T04:59:58.103Z,75.28
2019-04-04T05:02:28.510Z,74.02
2019-04-04T05:05:00.043Z,71.42
2019-04-04T05:07:30.588Z,71.09
2019-04-04T05:09:59.875Z,66.92
2019-04-04T05:12:29.238Z,64.09
2019-04-04T05:15:01.421Z,63.88
2019-04-04T05:17:31.471Z,64.07
2019-04-04T05:20:01.806Z,64.72
2019-04-04T05:22:32.309Z,63.45
2019-04-04T05:25:08.442Z,64.46
2019-04-04T05:27:35.097Z,55.77
2019-04-04T05:30:08.429Z,46.72
2019-04-04T05:32:39.219Z,45.46
2019-04-04T05:35:09.046Z,46.48
2019-04-04T05:37:41.596Z,50.71
2019-04-04T05:40:15.344Z,45.84
2019-04-04T05:42:47.346Z,43.16
2019-04-04T05:45:16.927Z,42.62
2019-04-04T05:47:47.397Z,51.42
2019-04-04T05:50:16.923Z,59.41
2019-04-04T05:52:47.281Z,59.65
2019-04-04T05:55:16.645Z,58.30
2019-04-04T05:57:47.034Z,61.27
2019-04-04T06:00:18.089Z,60.74
2019-04-04T06:02:48.499Z,60.90
2019-04-04T06:05:20.757Z,59.95
2019-04-04T06:07:53.150Z,56.30
2019-04-04T06:10:23.553Z,56.93
2019-04-04T06:12:57.308Z,56.16
2019-04-04T06:15:27.665Z,53.25
2019-04-04T06:17:58.107Z,46.12
2019-04-04T06:20:28.432Z,36.25
2019-04-04T06:22:58.821Z,36.15
2019-04-04T06:25:28.309Z,43.94
2019-04-04T06:27:59.215Z,42.50
2019-04-04T06:30:28.618Z,48.90
2019-04-04T06:32:59.088Z,49.01
2019-04-04T06:35:29.489Z,50.09
2019-04-04T06:38:00.115Z,49.01
2019-04-04T06:40:30.238Z,46.34
2019-04-04T06:43:03.539Z,43.68
2019-04-04T06:45:31.539Z,48.65
2019-04-04T06:48:01.009Z,44.26
2019-04-04T06:50:30.483Z,40.24
2019-04-04T06:53:00.865Z,38.50
2019-04-04T06:55:34.231Z,29.45
2019-04-04T06:58:08.336Z,26.39
2019-04-04T07:00:36.463Z,26.39
2019-04-04T07:03:09.904Z,29.61
2019-04-04T07:05:39.387Z,28.60
2019-04-04T07:08:15.188Z,29.26
2019-04-04T07:10:57.167Z,29.22
2019-04-04T07:13:22.133Z,30.47
2019-04-04T07:16:05.390Z,28.60
2019-04-04T07:18:22.161Z,28.99
2019-04-04T07:20:50.887Z,27.68
2019-04-04T07:23:20.363Z,27.13
2019-04-04T07:25:49.762Z,30.46
2019-04-04T07:28:20.127Z,31.49
2019-04-04T07:30:49.585Z,32.20
2019-04-04T07:33:21.460Z,34.99
2019-04-04T07:35:52.114Z,35.63
2019-04-04T07:38:22.474Z,37.43
2019-04-04T07:40:51.880Z,38.25
2019-04-04T07:43:22.159Z,38.66
2019-04-04T07:45:55.186Z,41.27
2019-04-04T07:48:24.726Z,40.38
2019-04-04T07:50:58.242Z,39.87
2019-04-04T07:53:28.147Z,38.61
2019-04-04T07:55:58.760Z,36.02
2019-04-04T07:58:30.632Z,37.41
2019-04-04T08:01:01.007Z,37.05
2019-04-04T08:03:30.522Z,36.54
2019-04-04T08:06:00.904Z,36.21
2019-04-04T08:08:30.392Z,36.17
2019-04-04T08:10:59.792Z,34.08
2019-04-04T08:13:30.135Z,35.61
2019-04-04T08:16:00.543Z,33.00
2019-04-04T08:18:30.953Z,34.36
2019-04-04T08:21:00.348Z,33.86
2019-04-04T08:23:30.453Z,33.92
2019-04-04T08:26:00.805Z,33.28
2019-04-04T08:28:31.322Z,32.62
2019-04-04T08:31:00.727Z,33.58
2019-04-04T08:33:31.185Z,32.06
2019-04-04T08:36:06.127Z,34.90
2019-04-04T08:38:33.263Z,34.83
2019-04-04T08:41:02.671Z,33.22
2019-04-04T08:43:33.017Z,32.96
2019-04-04T08:46:03.396Z,32.34
2019-04-04T08:48:32.829Z,34.55
2019-04-04T08:51:03.315Z,34.12
2019-04-04T08:53:39.871Z,35.97
2019-04-04T08:56:05.265Z,35.36
2019-04-04T08:58:34.669Z,35.36
2019-04-04T09:01:05.131Z,33.78
2019-04-04T09:03:37.110Z,33.17
2019-04-04T09:06:10.851Z,33.62
2019-04-04T09:08:41.167Z,34.72
2019-04-04T09:11:11.551Z,35.07
2019-04-04T09:13:42.998Z,35.80
2019-04-04T09:16:14.985Z,35.77
2019-04-04T09:18:45.460Z,35.69
2019-04-04T09:21:16.531Z,35.45
2019-04-04T09:23:46.953Z,35.41
2019-04-04T09:26:16.700Z,34.93
2019-04-04T09:28:46.070Z,35.48
2019-04-04T09:31:15.463Z,34.08
2019-04-04T09:33:45.950Z,34.53
2019-04-04T09:36:16.892Z,34.44
2019-04-04T09:38:47.397Z,34.61
2019-04-04T09:41:19.138Z,34.06
2019-04-04T09:43:49.537Z,33.81
2019-04-04T09:46:18.954Z,33.46
2019-04-04T09:48:48.373Z,33.50
2019-04-04T09:51:20.758Z,33.12
2019-04-04T09:53:53.282Z,33.31
2019-04-04T09:56:21.295Z,32.36
2019-04-04T09:58:54.795Z,32.66
2019-04-04T10:01:22.840Z,32.07
2019-04-04T10:03:52.261Z,32.17
2019-04-04T10:06:22.611Z,30.10
2019-04-04T10:08:52.140Z,30.43
2019-04-04T10:11:23.177Z,30.72
2019-04-04T10:13:52.652Z,31.04
2019-04-04T10:16:22.960Z,30.71
2019-04-04T10:18:53.871Z,31.15
2019-04-04T10:21:23.219Z,31.30
2019-04-04T10:23:54.074Z,31.70
2019-04-04T10:26:23.447Z,31.82
2019-04-04T10:28:52.292Z,31.50
2019-04-04T10:31:24.842Z,32.42
2019-04-04T10:33:55.261Z,32.32
2019-04-04T10:36:25.666Z,32.31
2019-04-04T10:38:55.162Z,32.51
2019-04-04T10:41:24.646Z,32.58
2019-04-04T10:43:56.973Z,32.82
2019-04-04T10:46:26.395Z,32.63
2019-04-04T10:48:56.741Z,31.75
2019-04-04T10:51:28.788Z,32.11
2019-04-04T10:53:59.211Z,32.19
2019-04-04T10:56:29.636Z,32.06
2019-04-04T10:59:00.045Z,31.94
2019-04-04T11:01:30.438Z,31.30
2019-04-04T11:03:59.925Z,31.25
2019-04-04T11:06:30.314Z,30.97
2019-04-04T11:09:02.699Z,30.93
2019-04-04T11:11:32.326Z,30.78
2019-04-04T11:14:01.678Z,31.52
2019-04-04T11:16:31.022Z,31.52
2019-04-04T11:19:01.398Z,31.35
2019-04-04T11:21:32.012Z,30.97
2019-04-04T11:24:00.905Z,30.95
2019-04-04T11:26:31.471Z,30.62
2019-04-04T11:29:01.994Z,31.05
2019-04-04T11:31:31.389Z,30.25
2019-04-04T11:34:01.743Z,30.73
2019-04-04T11:36:34.133Z,30.52
2019-04-04T11:39:06.668Z,31.24
2019-04-04T11:41:36.100Z,30.56
2019-04-04T11:44:06.602Z,30.65
2019-04-04T11:46:38.189Z,31.02
2019-04-04T11:49:08.573Z,30.65
2019-04-04T11:51:37.939Z,30.76
2019-04-04T11:54:07.343Z,30.84
2019-04-04T11:56:36.657Z,30.90
2019-04-04T11:59:08.168Z,30.90
2019-04-04T12:01:38.967Z,31.25
2019-04-04T12:04:08.450Z,32.06
2019-04-04T12:06:36.930Z,32.06
2019-04-04T12:09:08.303Z,30.51
2019-04-04T12:11:37.630Z,30.51
2019-04-04T12:14:07.091Z,30.73
2019-04-04T12:16:38.159Z,30.76
2019-04-04T12:19:07.517Z,30.59
2019-04-04T12:21:36.848Z,34.57
2019-04-04T12:24:07.310Z,34.91
2019-04-04T12:26:37.680Z,33.25
2019-04-04T12:29:08.022Z,33.66
2019-04-04T12:31:38.667Z,33.96
2019-04-04T12:34:08.077Z,33.68
2019-04-04T12:36:40.076Z,34.71
2019-04-04T12:39:10.615Z,34.04
2019-04-04T12:41:40.019Z,34.16
2019-04-04T12:44:09.501Z,34.82
2019-04-04T12:46:37.983Z,34.87
2019-04-04T12:49:07.480Z,34.69
2019-04-04T12:51:36.314Z,33.93
2019-04-04T12:54:05.859Z,34.42
2019-04-04T12:56:36.209Z,34.14
2019-04-04T12:59:05.726Z,33.81
2019-04-04T13:01:36.120Z,34.23
2019-04-04T13:04:06.446Z,35.35
2019-04-04T13:06:36.753Z,35.81
2019-04-04T13:09:10.197Z,34.91
2019-04-04T13:11:40.568Z,35.85
2019-04-04T13:14:10.076Z,34.31
2019-04-04T13:16:40.468Z,34.41
2019-04-04T13:19:09.269Z,34.30
2019-04-04T13:21:39.678Z,34.06
2019-04-04T13:24:09.187Z,34.45
2019-04-04T13:26:39.600Z,34.25
2019-04-04T13:29:11.438Z,34.48
2019-04-04T13:31:42.239Z,33.55
2019-04-04T13:34:11.602Z,34.47
2019-04-04T13:36:42.577Z,33.58
2019-04-04T13:39:12.141Z,33.86
2019-04-04T13:41:41.676Z,33.66
2019-04-04T13:44:11.072Z,33.54
2019-04-04T13:46:39.944Z,35.12
2019-04-04T13:49:11.663Z,34.24
2019-04-04T13:51:42.140Z,34.20
2019-04-04T13:54:12.464Z,34.71
2019-04-04T13:56:44.429Z,34.76
2019-04-04T13:59:16.372Z,33.22
2019-04-04T14:01:47.532Z,33.06
2019-04-04T14:04:20.287Z,32.44
2019-04-04T14:06:49.789Z,34.44
2019-04-04T14:09:19.170Z,35.08
2019-04-04T14:11:49.561Z,35.20
2019-04-04T14:14:19.922Z,35.06
2019-04-04T14:16:52.944Z,34.14
2019-04-04T14:19:23.957Z,36.07
2019-04-04T14:21:54.529Z,36.21
2019-04-04T14:24:24.946Z,35.96
2019-04-04T14:26:54.353Z,36.19
2019-04-04T14:29:27.731Z,36.60
2019-04-04T14:31:57.424Z,36.42
2019-04-04T14:34:26.873Z,37.03
2019-04-04T14:36:56.269Z,36.94
2019-04-04T14:39:26.649Z,38.00
2019-04-04T14:41:57.041Z,38.94
2019-04-04T14:44:28.022Z,39.59
2019-04-04T14:46:58.645Z,39.32
2019-04-04T14:49:27.111Z,39.24
2019-04-04T14:51:56.588Z,39.83
2019-04-04T14:54:25.095Z,40.39
2019-04-04T14:56:53.576Z,40.39
2019-04-04T14:59:24.045Z,39.94
2019-04-04T15:01:54.559Z,40.00
2019-04-04T15:04:25.580Z,39.76
2019-04-04T15:06:55.980Z,40.22
2019-04-04T15:09:26.549Z,41.49
2019-04-04T15:11:55.978Z,41.27
2019-04-04T15:14:27.959Z,40.88
2019-04-04T15:16:58.387Z,40.94
2019-04-04T15:19:30.163Z,41.15
2019-04-04T15:21:59.678Z,40.70
2019-04-04T15:24:30.175Z,40.95
2019-04-04T15:27:02.567Z,41.10
2019-04-04T15:29:32.089Z,41.65
2019-04-04T15:32:02.614Z,42.28
2019-04-04T15:34:35.037Z,41.92
2019-04-04T15:37:04.416Z,42.89
2019-04-04T15:39:32.926Z,44.01
2019-04-04T15:42:03.643Z,44.49
2019-04-04T15:44:33.051Z,45.00
2019-04-04T15:47:02.480Z,47.04
2019-04-04T15:49:32.847Z,48.37
2019-04-04T15:52:02.357Z,48.98
2019-04-04T15:54:32.858Z,49.95
2019-04-04T15:57:02.226Z,51.24
2019-04-04T15:59:34.601Z,52.15
2019-04-04T16:02:07.094Z,52.90
2019-04-04T16:04:37.717Z,53.04
2019-04-04T16:07:08.464Z,53.27
2019-04-04T16:09:37.949Z,54.13
2019-04-04T16:12:08.221Z,54.74
2019-04-04T16:14:37.622Z,55.60
2019-04-04T16:17:08.076Z,55.82
2019-04-04T16:19:40.461Z,56.15
2019-04-04T16:22:09.857Z,56.59
2019-04-04T16:24:40.225Z,57.44
2019-04-04T16:27:11.085Z,57.83
2019-04-04T16:29:44.278Z,58.02
2019-04-04T16:32:13.996Z,58.14
2019-04-04T16:34:43.426Z,58.27
2019-04-04T16:37:12.825Z,58.17
2019-04-04T16:39:43.318Z,58.59
2019-04-04T16:42:13.691Z,58.91
2019-04-04T16:44:44.094Z,59.22
2019-04-04T16:47:13.605Z,59.27
2019-04-04T16:49:44.173Z,58.88
2019-04-04T16:52:13.580Z,58.52
2019-04-04T16:54:44.018Z,58.89
2019-04-04T16:57:14.576Z,58.99
2019-04-04T16:59:44.080Z,59.11
2019-04-04T17:02:13.537Z,58.83
2019-04-04T17:04:44.002Z,59.06
2019-04-04T17:07:13.359Z,59.59
2019-04-04T17:09:43.766Z,59.73
2019-04-04T17:12:16.152Z,59.39
2019-04-04T17:14:46.484Z,59.53
2019-04-04T17:17:16.968Z,59.77
2019-04-04T17:19:49.355Z,60.03
2019-04-04T17:22:21.234Z,59.92
2019-04-04T17:24:50.645Z,59.80
2019-04-04T17:27:20.161Z,59.72
2019-04-04T17:29:48.753Z,59.78
2019-04-04T17:32:17.259Z,59.92
2019-04-04T17:34:47.751Z,60.61
2019-04-04T17:37:18.138Z,59.71
2019-04-04T17:39:47.937Z,59.86
2019-04-04T17:42:28.646Z,59.90
2019-04-04T17:44:49.521Z,59.79
2019-04-04T17:47:22.877Z,59.56
2019-04-04T17:49:53.652Z,59.80
2019-04-04T17:52:24.370Z,59.43
2019-04-04T17:54:53.726Z,59.79
2019-04-04T17:57:24.813Z,59.52
2019-04-04T17:59:54.285Z,59.37
2019-04-04T18:02:23.156Z,59.79
2019-04-04T18:04:54.880Z,59.71
2019-04-04T18:07:24.252Z,59.33
2019-04-04T18:09:53.657Z,59.08
2019-04-04T18:12:25.388Z,59.26
2019-04-04T18:14:56.711Z,59.35
2019-04-04T18:17:29.310Z,58.99
2019-04-04T18:19:58.146Z,58.96
2019-04-04T18:22:26.986Z,59.18
2019-04-04T18:24:57.498Z,58.91
2019-04-04T18:27:31.141Z,59.13
2019-04-04T18:30:00.562Z,59.46
2019-04-04T18:32:30.929Z,59.94
2019-04-04T18:35:00.293Z,60.12
2019-04-04T18:37:30.093Z,60.07
2019-04-04T18:40:02.071Z,60.12
2019-04-04T18:42:31.531Z,60.76
2019-04-04T18:45:01.895Z,61.03
2019-04-04T18:47:31.267Z,60.94
2019-04-04T18:50:00.661Z,61.07
2019-04-04T18:52:33.110Z,60.99
2019-04-04T18:55:03.511Z,60.92
2019-04-04T18:57:34.038Z,61.33
2019-04-04T19:00:03.531Z,61.14
2019-04-04T19:02:32.952Z,61.36
2019-04-04T19:05:02.355Z,61.38
2019-04-04T19:07:39.173Z,61.49
2019-04-04T19:10:04.083Z,61.71
2019-04-04T19:12:34.473Z,61.92
2019-04-04T19:15:07.589Z,62.14
2019-04-04T19:17:36.339Z,62.25
2019-04-04T19:20:12.854Z,62.52
2019-04-04T19:22:42.312Z,62.15
2019-04-04T19:25:13.920Z,62.29
2019-04-04T19:27:44.369Z,62.13
2019-04-04T19:30:13.458Z,61.87
2019-04-04T19:32:47.017Z,61.31
2019-04-04T19:35:18.222Z,62.09
2019-04-04T19:37:59.475Z,61.86
2019-04-04T19:40:21.730Z,61.39
2019-04-04T19:42:51.157Z,61.54
2019-04-04T19:45:21.839Z,61.61
2019-04-04T19:47:51.274Z,61.33
2019-04-04T19:50:20.833Z,62.22
2019-04-04T19:52:50.270Z,62.53
2019-04-04T19:55:19.656Z,62.31
2019-04-04T19:57:49.012Z,62.33
2019-04-04T20:00:20.020Z,62.60
2019-04-04T20:02:49.436Z,62.50
2019-04-04T20:05:21.104Z,62.95
2019-04-04T20:07:51.539Z,63.52
2019-04-04T20:10:21.930Z,63.08
2019-04-04T20:12:51.514Z,63.08
2019-04-04T20:15:21.844Z,62.50
2019-04-04T20:17:54.206Z,62.85
2019-04-04T20:20:24.720Z,62.65
2019-04-04T20:22:55.131Z,63.09
2019-04-04T20:25:25.537Z,63.67
2019-04-04T20:27:55.940Z,63.29
2019-04-04T20:30:39.553Z,62.84
2019-04-04T20:33:12.150Z,62.91
2019-04-04T20:35:42.610Z,62.93
2019-04-04T20:38:11.382Z,63.23
2019-04-04T20:40:40.747Z,63.36
2019-04-04T20:43:10.171Z,62.77
2019-04-04T20:45:40.529Z,62.77
2019-04-04T20:48:11.505Z,62.74
2019-04-04T20:50:40.976Z,62.12
2019-04-04T20:53:12.731Z,62.31
2019-04-04T20:55:42.218Z,63.10
2019-04-04T20:58:11.604Z,63.05
2019-04-04T21:00:42.192Z,63.17
2019-04-04T21:03:11.543Z,62.90
2019-04-04T21:05:43.509Z,62.34
2019-04-04T21:08:13.840Z,62.20
2019-04-04T21:10:44.316Z,62.78
2019-04-04T21:13:14.720Z,62.91
2019-04-04T21:15:45.230Z,63.18
2019-04-04T21:18:14.652Z,62.90
2019-04-04T21:20:45.002Z,62.45
2019-04-04T21:23:14.408Z,62.57
2019-04-04T21:25:46.331Z,62.30
2019-04-04T21:28:16.744Z,62.84
2019-04-04T21:30:47.457Z,62.77
2019-04-04T21:33:17.877Z,62.90
2019-04-04T21:35:47.267Z,63.39
2019-04-04T21:38:18.062Z,63.01
2019-04-04T21:40:48.458Z,63.00
2019-04-04T21:43:17.822Z,62.44
2019-04-04T21:45:47.220Z,62.42
2019-04-04T21:48:17.788Z,63.20
2019-04-04T21:50:47.189Z,62.54
2019-04-04T21:53:17.648Z,62.63
2019-04-04T21:55:47.988Z,63.09
2019-04-04T21:58:18.550Z,63.09
2019-04-04T22:00:48.264Z,62.90
2019-04-04T22:03:18.610Z,62.98
2019-04-04T22:05:49.167Z,62.95
2019-04-04T22:08:19.574Z,62.77
2019-04-04T22:10:49.056Z,62.83
2019-04-04T22:13:19.375Z,63.53
2019-04-04T22:15:48.801Z,63.78
2019-04-04T22:21:48.124Z,63.68
2019-04-04T22:24:17.581Z,63.62
2019-04-04T22:26:47.975Z,63.65
2019-04-04T22:29:17.374Z,63.67
2019-04-04T22:31:46.753Z,63.47
2019-04-04T22:34:18.775Z,63.65
2019-04-04T22:36:49.141Z,63.94
2019-04-04T22:39:19.572Z,64.05
2019-04-04T22:41:48.957Z,64.04
2019-04-04T22:44:19.353Z,64.17
2019-04-04T22:46:52.683Z,63.45
2019-04-04T22:49:23.097Z,63.90
2019-04-04T22:51:53.488Z,63.92
2019-04-04T22:54:22.867Z,64.06
2019-04-04T22:56:54.448Z,64.07
2019-04-04T22:59:24.983Z,64.17
2019-04-04T23:01:55.962Z,64.41
2019-04-04T23:04:25.436Z,64.93
2019-04-04T23:06:54.895Z,65.37
2019-04-04T23:09:24.300Z,64.92
2019-04-04T23:11:54.648Z,65.27
2019-04-04T23:14:25.037Z,65.38
2019-04-04T23:16:55.583Z,66.01
2019-04-04T23:19:25.969Z,65.51
2019-04-04T23:21:56.342Z,65.83
2019-04-04T23:24:26.708Z,65.78
2019-04-04T23:26:59.171Z,66.63
2019-04-04T23:29:29.532Z,66.18
2019-04-04T23:31:58.949Z,66.58
2019-04-04T23:34:30.639Z,66.57
2019-04-04T23:37:00.076Z,67.04
2019-04-04T23:39:34.021Z,67.00
2019-04-04T23:42:04.530Z,66.10
2019-04-04T23:44:34.947Z,66.54
2019-04-04T23:47:05.481Z,67.51
2019-04-04T23:49:35.759Z,66.56
2019-04-04T23:52:06.254Z,66.15
2019-04-04T23:54:37.909Z,67.08
2019-04-04T23:57:08.318Z,67.49
2019-04-04T23:59:38.914Z,67.91
